createdAt,value
2022-12-08T00:00:30.210Z,100262.00
2022-12-08T00:02:02.287Z,100257.80
2022-12-08T00:03:34.927Z,100258.80
2022-12-08T00:05:25.847Z,100252.40
2022-12-08T00:07:16.867Z,100247.60
2022-12-08T00:09:07.839Z,100250.80
2022-12-08T00:10:49.741Z,100245.40
2022-12-08T00:12:23.446Z,100244.20
2022-12-08T00:13:55.594Z,100243.40
2022-12-08T00:15:28.954Z,100240.00
2022-12-08T00:17:01.822Z,100245.00
2022-12-08T00:18:33.840Z,100253.60
2022-12-08T00:20:07.061Z,100246.40
2022-12-08T00:21:39.165Z,100239.20
2022-12-08T00:23:10.937Z,100234.20
2022-12-08T00:24:45.637Z,100230.60
2022-12-08T00:26:17.460Z,100229.60
2022-12-08T00:27:49.206Z,100230.80
2022-12-08T00:29:21.271Z,100231.40
2022-12-08T00:30:52.999Z,100234.60
2022-12-08T00:32:24.753Z,100232.00
2022-12-08T00:33:56.775Z,100226.60
2022-12-08T00:35:28.557Z,100228.20
2022-12-08T00:37:00.917Z,100229.60
2022-12-08T00:38:32.894Z,100230.00
2022-12-08T00:40:06.307Z,100229.80
2022-12-08T00:41:58.209Z,100226.60
2022-12-08T00:43:30.135Z,100230.80
2022-12-08T00:45:01.988Z,100227.20
2022-12-08T00:46:34.062Z,100220.20
2022-12-08T00:48:09.474Z,100223.60
2022-12-08T00:49:41.504Z,100215.20
2022-12-08T00:51:13.257Z,100221.40
2022-12-08T00:52:45.019Z,100216.60
2022-12-08T00:54:18.313Z,100215.20
2022-12-08T00:55:50.090Z,100215.60
2022-12-08T00:57:21.932Z,100214.20
2022-12-08T00:58:53.802Z,100209.20
2022-12-08T01:00:25.732Z,100204.60
2022-12-08T01:01:57.707Z,100206.20
2022-12-08T01:03:29.489Z,100203.40
2022-12-08T01:05:01.456Z,100203.80
2022-12-08T01:06:36.561Z,100197.40
2022-12-08T01:08:09.301Z,100200.80
2022-12-08T01:09:43.337Z,100202.60
2022-12-08T01:11:26.061Z,100198.00
2022-12-08T01:12:58.930Z,100196.20
2022-12-08T01:14:30.634Z,100193.00
2022-12-08T01:16:02.553Z,100193.40
2022-12-08T01:17:34.478Z,100191.20
2022-12-08T01:19:06.501Z,100187.60
2022-12-08T01:20:38.395Z,100192.40
2022-12-08T01:22:10.961Z,100193.80
2022-12-08T01:23:42.801Z,100200.40
2022-12-08T01:25:15.048Z,100193.00
2022-12-08T01:26:49.806Z,100191.40
2022-12-08T01:28:22.467Z,100193.80
2022-12-08T01:29:55.686Z,100189.40
2022-12-08T01:31:30.064Z,100190.80
2022-12-08T01:33:02.089Z,100193.60
2022-12-08T01:34:33.888Z,100193.60
2022-12-08T01:36:07.039Z,100189.40
2022-12-08T01:37:40.175Z,100192.60
2022-12-08T01:39:18.781Z,100195.20
2022-12-08T01:40:51.886Z,100194.40
2022-12-08T01:42:24.870Z,100191.00
2022-12-08T01:44:08.284Z,100191.40
2022-12-08T01:45:40.183Z,100189.00
2022-12-08T01:47:12.723Z,100188.80
2022-12-08T01:48:44.467Z,100188.00
2022-12-08T01:50:19.905Z,100188.60
2022-12-08T01:52:14.239Z,100184.60
2022-12-08T01:53:48.715Z,100187.60
2022-12-08T01:55:26.407Z,100188.40
2022-12-08T01:57:09.755Z,100188.40
2022-12-08T01:58:47.978Z,100184.80
2022-12-08T02:00:22.782Z,100186.80
2022-12-08T02:01:54.905Z,100188.60
2022-12-08T02:03:40.841Z,100189.80
2022-12-08T02:05:13.836Z,100182.20
2022-12-08T02:06:48.661Z,100184.40
2022-12-08T02:08:21.975Z,100179.40
2022-12-08T02:09:55.158Z,100184.20
2022-12-08T02:11:27.044Z,100177.00
2022-12-08T02:13:00.406Z,100171.40
2022-12-08T02:14:32.359Z,100168.20
2022-12-08T02:16:17.673Z,100168.00
2022-12-08T02:18:11.826Z,100168.00
2022-12-08T02:20:21.199Z,100163.40
2022-12-08T02:22:17.244Z,100165.20
2022-12-08T02:24:17.999Z,100161.60
2022-12-08T02:26:07.774Z,100157.20
2022-12-08T02:28:41.198Z,100159.40
2022-12-08T02:30:18.914Z,100149.80
2022-12-08T02:32:05.880Z,100147.80
2022-12-08T02:34:11.911Z,100148.60
2022-12-08T02:36:15.165Z,100143.60
2022-12-08T02:38:31.712Z,100150.20
2022-12-08T02:40:43.800Z,100144.60
2022-12-08T02:42:37.058Z,100140.60
2022-12-08T02:44:17.395Z,100140.60
2022-12-08T02:46:01.202Z,100138.00
2022-12-08T02:47:34.619Z,100135.40
2022-12-08T02:49:07.899Z,100134.20
2022-12-08T02:50:39.962Z,100124.60
2022-12-08T02:52:11.635Z,100125.20
2022-12-08T02:53:44.546Z,100122.00
2022-12-08T02:55:28.987Z,100122.80
2022-12-08T02:57:16.162Z,100119.60
2022-12-08T02:59:12.099Z,100116.80
2022-12-08T03:00:57.325Z,100114.60
2022-12-08T03:02:41.235Z,100116.40
2022-12-08T03:04:43.766Z,100113.40
2022-12-08T03:06:44.482Z,100119.80
2022-12-08T03:08:18.997Z,100114.60
2022-12-08T03:10:13.557Z,100109.00
2022-12-08T03:12:10.605Z,100109.80
2022-12-08T03:13:50.304Z,100111.80
2022-12-08T03:15:22.664Z,100110.20
2022-12-08T03:16:59.978Z,100104.60
2022-12-08T03:18:39.351Z,100104.00
2022-12-08T03:20:18.442Z,100100.40
2022-12-08T03:21:54.458Z,100093.20
2022-12-08T03:23:26.867Z,100090.60
2022-12-08T03:25:00.661Z,100086.80
2022-12-08T03:26:57.738Z,100082.00
2022-12-08T03:28:29.866Z,100079.40
2022-12-08T03:30:02.751Z,100080.20
2022-12-08T03:31:44.684Z,100074.60
2022-12-08T03:33:27.300Z,100073.60
2022-12-08T03:35:05.797Z,100076.40
2022-12-08T03:36:38.732Z,100072.80
2022-12-08T03:38:15.700Z,100071.00
2022-12-08T03:39:47.967Z,100067.60
2022-12-08T03:41:24.386Z,100068.60
2022-12-08T03:42:57.168Z,100067.00
2022-12-08T03:44:28.958Z,100061.80
2022-12-08T03:46:00.881Z,100063.00
2022-12-08T03:47:32.821Z,100059.80
2022-12-08T03:49:04.703Z,100061.40
2022-12-08T03:50:36.402Z,100051.80
2022-12-08T03:52:08.135Z,100053.00
2022-12-08T03:53:40.238Z,100053.80
2022-12-08T03:55:12.062Z,100048.20
2022-12-08T03:56:43.921Z,100043.60
2022-12-08T03:58:15.625Z,100047.00
2022-12-08T03:59:47.486Z,100042.80
2022-12-08T04:01:19.675Z,100042.60
2022-12-08T04:02:51.648Z,100037.60
2022-12-08T04:04:23.486Z,100035.00
2022-12-08T04:05:55.287Z,100033.00
2022-12-08T04:07:27.113Z,100038.20
2022-12-08T04:09:00.071Z,100037.40
2022-12-08T04:10:32.143Z,100040.40
2022-12-08T04:12:04.373Z,100037.40
2022-12-08T04:13:39.350Z,100036.60
2022-12-08T04:15:16.070Z,100033.60
2022-12-08T04:16:48.383Z,100034.00
2022-12-08T04:18:20.166Z,100033.00
2022-12-08T04:19:52.011Z,100027.00
2022-12-08T04:21:23.849Z,100031.80
2022-12-08T04:22:55.879Z,100027.20
2022-12-08T04:24:27.997Z,100028.60
2022-12-08T04:26:00.053Z,100024.20
2022-12-08T04:27:31.947Z,100022.60
2022-12-08T04:29:04.453Z,100022.00
2022-12-08T04:30:36.919Z,100016.20
2022-12-08T04:32:08.875Z,100016.40
2022-12-08T04:33:55.365Z,100019.00
2022-12-08T04:35:35.516Z,100013.40
2022-12-08T04:37:11.063Z,100014.40
2022-12-08T04:38:47.639Z,100018.00
2022-12-08T04:40:22.537Z,100015.60
2022-12-08T04:41:56.494Z,100016.00
2022-12-08T04:43:28.531Z,100010.40
2022-12-08T04:45:00.196Z,100017.00
2022-12-08T04:46:32.097Z,100010.80
2022-12-08T04:48:04.545Z,100011.20
2022-12-08T04:49:36.252Z,100015.00
2022-12-08T04:51:19.026Z,100013.00
2022-12-08T04:52:51.159Z,100010.80
2022-12-08T04:54:22.921Z,100007.80
2022-12-08T04:55:55.408Z,100007.00
2022-12-08T04:57:27.388Z,100008.00
2022-12-08T04:58:59.217Z,100009.80
2022-12-08T05:00:31.005Z,100007.20
2022-12-08T05:02:02.980Z,100005.40
2022-12-08T05:03:34.910Z,100002.60
2022-12-08T05:05:07.295Z,99998.80
2022-12-08T05:06:38.984Z,99996.40
2022-12-08T05:08:11.576Z,99994.00
2022-12-08T05:09:44.116Z,99996.00
2022-12-08T05:11:15.954Z,99994.40
2022-12-08T05:12:47.716Z,99992.60
2022-12-08T05:14:20.247Z,99990.80
2022-12-08T05:15:52.027Z,99994.00
2022-12-08T05:17:23.914Z,99993.00
2022-12-08T05:18:55.611Z,99999.20
2022-12-08T05:20:28.150Z,99999.00
2022-12-08T05:21:59.942Z,99993.40
2022-12-08T05:23:31.992Z,99994.60
2022-12-08T05:25:04.101Z,99989.00
2022-12-08T05:26:35.990Z,99992.20
2022-12-08T05:28:39.754Z,99989.40
2022-12-08T05:29:59.466Z,99990.40
2022-12-08T05:31:31.635Z,99994.00
2022-12-08T05:33:03.616Z,99986.00
2022-12-08T05:34:35.446Z,99990.60
2022-12-08T05:36:08.923Z,99986.20
2022-12-08T05:37:40.704Z,99987.80
2022-12-08T05:39:14.321Z,99984.40
2022-12-08T05:40:47.058Z,99982.00
2022-12-08T05:42:24.364Z,99981.60
2022-12-08T05:43:56.616Z,99979.00
2022-12-08T05:45:28.530Z,99981.40
2022-12-08T05:47:00.624Z,99972.00
2022-12-08T05:48:33.247Z,99971.20
2022-12-08T05:50:07.034Z,99975.40
2022-12-08T05:51:38.999Z,99974.60
2022-12-08T05:53:10.724Z,99969.80
2022-12-08T05:54:42.431Z,99973.00
2022-12-08T05:56:14.279Z,99974.80
2022-12-08T05:57:45.953Z,99969.00
2022-12-08T05:59:17.756Z,99966.60
2022-12-08T06:00:50.652Z,99962.80
2022-12-08T06:02:22.579Z,99963.40
2022-12-08T06:03:55.861Z,99959.40
2022-12-08T06:05:27.661Z,99960.20
2022-12-08T06:07:00.076Z,99961.20
2022-12-08T06:08:32.841Z,99955.20
2022-12-08T06:10:06.751Z,99957.80
2022-12-08T06:11:38.705Z,99958.40
2022-12-08T06:13:11.296Z,99953.00
2022-12-08T06:14:43.193Z,99956.20
2022-12-08T06:16:15.362Z,99954.40
2022-12-08T06:17:47.100Z,99955.00
2022-12-08T06:19:19.129Z,99962.00
2022-12-08T06:20:50.900Z,99959.40
2022-12-08T06:22:22.864Z,99964.20
2022-12-08T06:23:55.443Z,99958.20
2022-12-08T06:25:27.299Z,99964.40
2022-12-08T06:26:59.011Z,99960.60
2022-12-08T06:28:32.778Z,99956.60
2022-12-08T06:30:05.952Z,99961.20
2022-12-08T06:31:38.286Z,99956.80
2022-12-08T06:33:10.116Z,99958.00
2022-12-08T06:34:41.929Z,99953.20
2022-12-08T06:36:16.041Z,99959.20
2022-12-08T06:37:47.800Z,99957.80
2022-12-08T06:39:19.589Z,99954.60
2022-12-08T06:40:57.357Z,99954.40
2022-12-08T06:42:44.114Z,99957.80
2022-12-08T06:44:15.923Z,99960.20
2022-12-08T06:45:50.203Z,99959.00
2022-12-08T06:47:26.186Z,99958.60
2022-12-08T06:48:58.963Z,99957.00
2022-12-08T06:50:30.997Z,99956.60
2022-12-08T06:52:02.807Z,99959.00
2022-12-08T06:53:34.812Z,99957.00
2022-12-08T06:55:08.199Z,99958.20
2022-12-08T06:56:39.934Z,99954.40
2022-12-08T06:58:13.253Z,99959.60
2022-12-08T06:59:45.231Z,99956.60
2022-12-08T07:01:16.983Z,99956.00
2022-12-08T07:02:49.129Z,99960.00
2022-12-08T07:04:20.963Z,99960.20
2022-12-08T07:06:03.279Z,99958.20
2022-12-08T07:07:35.711Z,99959.80
2022-12-08T07:09:07.581Z,99959.40
2022-12-08T07:10:39.367Z,99961.00
2022-12-08T07:12:11.182Z,99957.20
2022-12-08T07:13:42.917Z,99959.60
2022-12-08T07:15:14.733Z,99959.60
2022-12-08T07:16:46.542Z,99961.00
2022-12-08T07:18:18.293Z,99958.00
2022-12-08T07:19:50.076Z,99964.00
2022-12-08T07:21:21.803Z,99965.20
2022-12-08T07:22:54.286Z,99967.60
2022-12-08T07:24:26.270Z,99965.20
2022-12-08T07:26:02.488Z,99962.80
2022-12-08T07:27:34.216Z,99969.00
2022-12-08T07:29:06.009Z,99967.40
2022-12-08T07:30:39.287Z,99968.40
2022-12-08T07:32:11.222Z,99967.40
2022-12-08T07:33:43.276Z,99966.60
2022-12-08T07:35:15.142Z,99963.40
2022-12-08T07:36:46.879Z,99966.40
2022-12-08T07:38:18.683Z,99969.40
2022-12-08T07:39:51.163Z,99970.40
2022-12-08T07:41:26.036Z,99961.80
2022-12-08T07:42:58.046Z,99963.60
2022-12-08T07:44:31.314Z,99959.80
2022-12-08T07:46:03.175Z,99960.80
2022-12-08T07:47:35.761Z,99960.00
2022-12-08T07:49:07.479Z,99955.00
2022-12-08T07:50:39.744Z,99961.40
2022-12-08T07:52:44.612Z,99961.80
2022-12-08T07:54:18.712Z,99960.20
2022-12-08T07:55:50.706Z,99956.40
2022-12-08T07:57:22.679Z,99958.20
2022-12-08T07:58:57.866Z,99960.00
2022-12-08T08:00:29.777Z,99953.60
2022-12-08T08:02:22.916Z,99961.40
2022-12-08T08:03:57.487Z,99961.60
2022-12-08T08:05:33.524Z,99961.60
2022-12-08T08:07:05.356Z,99957.20
2022-12-08T08:08:37.846Z,99960.20
2022-12-08T08:10:11.715Z,99962.80
2022-12-08T08:11:55.919Z,99959.60
2022-12-08T08:13:37.338Z,99960.20
2022-12-08T08:15:10.770Z,99955.80
2022-12-08T08:16:46.873Z,99956.20
2022-12-08T08:18:18.989Z,99959.20
2022-12-08T08:19:52.781Z,99960.20
2022-12-08T08:23:17.565Z,99962.20
2022-12-08T08:24:49.701Z,99962.60
2022-12-08T08:26:21.882Z,99968.00
2022-12-08T08:27:55.249Z,99969.60
2022-12-08T08:29:27.835Z,99968.40
2022-12-08T08:31:01.126Z,99969.40
2022-12-08T08:32:35.319Z,99973.40
2022-12-08T08:34:07.369Z,99976.60
2022-12-08T08:35:39.890Z,99976.00
2022-12-08T08:37:11.946Z,99974.00
2022-12-08T08:38:44.663Z,99971.40
2022-12-08T08:40:18.185Z,99972.60
2022-12-08T08:41:50.266Z,99969.80
2022-12-08T08:43:37.851Z,99967.20
2022-12-08T08:45:11.187Z,99969.20
2022-12-08T08:46:43.376Z,99968.60
2022-12-08T08:48:15.473Z,99963.80
2022-12-08T08:49:47.568Z,99967.60
2022-12-08T08:51:20.019Z,99969.80
2022-12-08T08:52:53.575Z,99968.40
2022-12-08T08:54:25.724Z,99967.00
2022-12-08T08:55:57.697Z,99967.00
2022-12-08T08:57:29.902Z,99968.60
2022-12-08T08:59:03.092Z,99972.40
2022-12-08T09:00:35.332Z,99973.20
2022-12-08T09:02:07.423Z,99969.20
2022-12-08T09:03:39.449Z,99971.60
2022-12-08T09:05:11.427Z,99973.60
2022-12-08T09:06:45.383Z,99975.40
2022-12-08T09:08:17.668Z,99979.40
2022-12-08T09:09:49.834Z,99978.40
2022-12-08T09:11:35.438Z,99976.60
2022-12-08T09:13:09.271Z,99976.00
2022-12-08T09:14:41.349Z,99973.80
2022-12-08T09:16:13.535Z,99974.20
2022-12-08T09:17:45.721Z,99970.60
2022-12-08T09:19:19.968Z,99977.60
2022-12-08T09:20:54.201Z,99972.20
2022-12-08T09:22:27.230Z,99976.40
2022-12-08T09:24:00.447Z,99975.00
2022-12-08T09:25:32.351Z,99979.80
2022-12-08T09:27:05.319Z,99981.40
2022-12-08T09:28:38.608Z,99981.00
2022-12-08T09:30:10.754Z,99981.60
2022-12-08T09:31:43.050Z,99984.80
2022-12-08T09:33:15.003Z,99981.40
2022-12-08T09:34:52.025Z,99987.20
2022-12-08T09:36:24.821Z,99977.40
2022-12-08T09:38:00.585Z,99983.00
2022-12-08T09:39:32.500Z,99979.20
2022-12-08T09:41:53.211Z,99983.20
2022-12-08T09:44:00.651Z,99986.60
2022-12-08T09:45:35.739Z,99983.40
2022-12-08T09:47:32.075Z,99983.80
2022-12-08T09:49:16.235Z,99980.20
2022-12-08T09:53:44.235Z,99986.00
2022-12-08T09:55:25.142Z,99985.40
2022-12-08T09:57:03.743Z,99978.20
2022-12-08T09:58:53.822Z,99980.40
2022-12-08T10:00:26.112Z,99977.00
2022-12-08T10:01:58.314Z,99973.20
2022-12-08T10:03:31.571Z,99974.00
2022-12-08T10:05:03.945Z,99978.40
2022-12-08T10:07:07.415Z,99980.40
2022-12-08T10:08:52.171Z,99978.00
2022-12-08T10:10:45.127Z,99975.60
2022-12-08T10:12:46.025Z,99978.80
2022-12-08T10:14:40.923Z,99977.00
2022-12-08T10:16:35.816Z,99975.00
2022-12-08T10:18:23.292Z,99973.20
2022-12-08T10:20:15.163Z,99972.40
2022-12-08T10:21:47.698Z,99971.60
2022-12-08T10:23:29.036Z,99973.60
2022-12-08T10:25:13.704Z,99973.40
2022-12-08T10:26:49.386Z,99969.40
2022-12-08T10:28:21.165Z,99968.60
2022-12-08T10:29:53.309Z,99964.80
2022-12-08T10:31:25.848Z,99959.60
2022-12-08T10:32:58.155Z,99960.40
2022-12-08T10:40:16.447Z,99963.40
2022-12-08T10:41:49.102Z,99957.00
2022-12-08T10:43:25.274Z,99960.20
2022-12-08T10:45:08.786Z,99958.60
2022-12-08T10:46:40.674Z,99957.60
2022-12-08T10:48:21.244Z,99955.80
2022-12-08T10:50:41.436Z,99958.60
2022-12-08T10:52:25.491Z,99960.80
2022-12-08T10:53:57.827Z,99959.00
2022-12-08T10:55:41.923Z,99958.40
2022-12-08T10:59:13.055Z,99956.80
2022-12-08T11:00:44.297Z,99950.60
2022-12-08T11:02:26.196Z,99950.80
2022-12-08T11:04:03.523Z,99951.40
2022-12-08T11:05:35.920Z,99952.00
2022-12-08T11:07:11.002Z,99951.80
2022-12-08T11:08:56.535Z,99951.60
2022-12-08T11:10:36.512Z,99946.60
2022-12-08T11:12:22.085Z,99946.20
2022-12-08T11:13:53.313Z,99950.40
2022-12-08T11:15:24.969Z,99947.00
2022-12-08T11:17:26.065Z,99948.00
2022-12-08T11:18:58.021Z,99943.00
2022-12-08T11:20:43.146Z,99942.20
2022-12-08T11:22:33.570Z,99935.20
2022-12-08T11:24:32.258Z,99933.80
2022-12-08T11:26:22.491Z,99940.60
2022-12-08T11:27:58.890Z,99935.20
2022-12-08T11:29:35.064Z,99933.20
2022-12-08T11:31:37.389Z,99930.80
2022-12-08T11:33:19.335Z,99935.40
2022-12-08T11:35:05.814Z,99931.00
2022-12-08T11:36:38.519Z,99933.20
2022-12-08T11:38:23.758Z,99930.80
2022-12-08T11:39:59.975Z,99930.00
2022-12-08T11:41:38.729Z,99931.40
2022-12-08T11:43:40.253Z,99938.60
2022-12-08T11:45:19.582Z,99932.40
2022-12-08T11:47:06.065Z,99933.80
2022-12-08T11:49:05.894Z,99924.00
2022-12-08T11:50:52.311Z,99927.40
2022-12-08T11:52:41.409Z,99921.20
2022-12-08T11:54:26.847Z,99923.40
2022-12-08T11:56:06.509Z,99923.60
2022-12-08T11:57:37.678Z,99923.40
2022-12-08T11:59:37.706Z,99918.40
2022-12-08T12:01:24.869Z,99923.20
2022-12-08T12:03:14.874Z,99922.00
2022-12-08T12:04:54.148Z,99915.80
2022-12-08T12:06:56.789Z,99920.20
2022-12-08T12:09:12.928Z,99920.00
2022-12-08T12:11:51.336Z,99920.00
2022-12-08T12:13:31.381Z,99911.60
2022-12-08T12:15:39.803Z,99919.20
2022-12-08T12:17:35.849Z,99914.60
2022-12-08T12:19:17.136Z,99907.80
2022-12-08T12:20:53.677Z,99909.60
2022-12-08T12:24:39.695Z,99910.00
2022-12-08T12:26:31.049Z,99906.60
2022-12-08T12:28:08.614Z,99908.60
2022-12-08T12:29:56.113Z,99908.60
2022-12-08T12:31:40.744Z,99906.80
2022-12-08T12:33:17.118Z,99901.40
2022-12-08T12:34:55.510Z,99902.20
2022-12-08T12:36:26.734Z,99907.80
2022-12-08T12:38:32.620Z,99901.40
2022-12-08T12:40:17.622Z,99902.20
2022-12-08T12:41:57.429Z,99907.40
2022-12-08T12:43:37.571Z,99909.20
2022-12-08T12:45:28.567Z,99910.00
2022-12-08T12:47:06.872Z,99906.40
2022-12-08T12:48:37.952Z,99906.60
2022-12-08T12:50:09.422Z,99906.00
2022-12-08T12:51:47.617Z,99908.60
2022-12-08T12:53:18.765Z,99904.60
2022-12-08T12:54:49.767Z,99901.00
2022-12-08T12:56:51.278Z,99900.20
2022-12-08T12:58:28.494Z,99901.80
2022-12-08T12:59:59.559Z,99901.40
2022-12-08T13:04:30.457Z,99903.20
2022-12-08T13:06:03.660Z,99894.00
2022-12-08T13:08:02.535Z,99896.80
2022-12-08T13:09:39.044Z,99900.40
2022-12-08T13:11:11.142Z,99900.80
2022-12-08T13:12:45.472Z,99897.20
2022-12-08T13:14:32.014Z,99896.20
2022-12-08T13:16:18.480Z,99897.60
2022-12-08T13:17:50.586Z,99893.80
2022-12-08T13:19:21.964Z,99897.60
2022-12-08T13:21:03.119Z,99897.80
2022-12-08T13:23:04.955Z,99900.00
2022-12-08T13:24:36.132Z,99891.80
2022-12-08T13:26:26.815Z,99892.00
2022-12-08T13:28:23.451Z,99892.60
2022-12-08T13:30:38.497Z,99887.20
2022-12-08T13:32:14.991Z,99888.00
2022-12-08T13:33:47.835Z,99885.80
2022-12-08T13:35:19.708Z,99884.80
2022-12-08T13:37:53.989Z,99883.80
2022-12-08T13:39:40.432Z,99880.00
2022-12-08T13:41:23.736Z,99876.00
2022-12-08T13:43:47.298Z,99876.60
2022-12-08T13:46:04.341Z,99881.40
2022-12-08T13:47:34.447Z,99880.80
2022-12-08T13:53:22.476Z,99882.80
2022-12-08T13:57:47.039Z,99881.20
2022-12-08T13:59:18.452Z,99877.20
2022-12-08T14:01:03.437Z,99876.00
2022-12-08T14:02:47.850Z,99878.40
2022-12-08T14:04:47.861Z,99880.00
2022-12-08T14:06:18.534Z,99878.20
2022-12-08T14:07:54.469Z,99875.00
2022-12-08T14:09:34.151Z,99876.60
2022-12-08T14:23:21.861Z,99882.00
2022-12-08T14:24:54.664Z,99881.00
2022-12-08T14:26:26.596Z,99878.20
2022-12-08T14:30:55.644Z,99880.20
2022-12-08T14:32:37.059Z,99887.00
2022-12-08T14:34:19.366Z,99882.40
2022-12-08T14:35:56.031Z,99884.40
2022-12-08T14:37:37.700Z,99887.60
2022-12-08T14:39:11.096Z,99886.40
2022-12-08T14:41:03.752Z,99885.40
2022-12-08T14:43:09.244Z,99886.40
2022-12-08T14:44:41.321Z,99888.20
2022-12-08T14:46:23.223Z,99891.20
2022-12-08T14:47:56.478Z,99886.00
2022-12-08T14:49:57.060Z,99887.40
2022-12-08T14:51:33.767Z,99891.20
2022-12-08T14:53:16.509Z,99890.20
2022-12-08T14:54:56.311Z,99889.60
2022-12-08T14:57:03.018Z,99881.60
2022-12-08T14:58:35.539Z,99883.60
2022-12-08T15:00:11.857Z,99883.80
2022-12-08T15:01:46.899Z,99889.60
2022-12-08T15:03:23.367Z,99886.80
2022-12-08T15:05:07.182Z,99883.40
2022-12-08T15:07:00.754Z,99884.40
2022-12-08T15:08:36.991Z,99887.20
2022-12-08T15:10:16.415Z,99885.80
2022-12-08T15:12:06.848Z,99886.40
2022-12-08T15:13:51.902Z,99886.20
2022-12-08T15:15:23.948Z,99888.40
2022-12-08T15:16:56.476Z,99887.40
2022-12-08T15:18:41.136Z,99887.20
2022-12-08T15:20:44.279Z,99893.20
2022-12-08T15:22:24.228Z,99890.20
2022-12-08T15:23:57.352Z,99892.60
2022-12-08T15:25:33.913Z,99890.20
2022-12-08T15:27:09.025Z,99891.40
2022-12-08T15:28:40.898Z,99894.80
2022-12-08T15:30:17.946Z,99895.60
2022-12-08T15:31:53.575Z,99894.40
2022-12-08T15:33:26.575Z,99900.00
2022-12-08T15:34:59.312Z,99892.20
2022-12-08T15:36:31.321Z,99894.80
2022-12-08T15:38:06.280Z,99890.40
2022-12-08T15:39:40.027Z,99890.80
2022-12-08T15:41:15.218Z,99892.00
2022-12-08T15:42:55.239Z,99886.80
2022-12-08T15:44:38.200Z,99888.20
2022-12-08T15:46:10.322Z,99888.80
2022-12-08T15:47:45.189Z,99888.00
2022-12-08T15:49:22.031Z,99887.80
2022-12-08T15:50:55.702Z,99893.20
2022-12-08T15:52:27.947Z,99887.80
2022-12-08T15:53:59.948Z,99892.20
2022-12-08T15:55:38.485Z,99894.00
2022-12-08T16:00:24.372Z,99892.60
2022-12-08T16:02:03.458Z,99894.80
2022-12-08T16:05:44.754Z,99895.80
2022-12-08T16:07:37.976Z,99894.80
2022-12-08T16:09:40.946Z,99891.80
2022-12-08T16:13:56.722Z,99895.40
2022-12-08T16:17:27.317Z,99890.00
2022-12-08T16:18:59.374Z,99897.60
2022-12-08T16:22:56.720Z,99894.20
2022-12-08T16:24:36.913Z,99891.60
2022-12-08T16:27:21.921Z,99892.60
2022-12-08T16:28:45.116Z,99891.00
2022-12-08T16:30:20.534Z,99890.20
2022-12-08T16:31:52.651Z,99890.40
2022-12-08T16:33:35.571Z,99887.40
2022-12-08T16:35:08.307Z,99891.20
2022-12-08T16:36:40.292Z,99888.00
2022-12-08T16:38:17.258Z,99889.60
2022-12-08T16:40:05.705Z,99892.20
2022-12-08T16:41:56.777Z,99891.60
2022-12-08T16:43:28.888Z,99890.00
2022-12-08T16:45:23.955Z,99886.60
2022-12-08T16:46:55.933Z,99885.40
2022-12-08T16:48:28.487Z,99890.80
2022-12-08T16:50:00.334Z,99888.40
2022-12-08T16:51:32.210Z,99888.80
2022-12-08T16:53:09.308Z,99885.80
2022-12-08T16:54:44.422Z,99886.80
2022-12-08T16:56:33.241Z,99889.40
2022-12-08T16:58:06.216Z,99882.80
2022-12-08T16:59:39.334Z,99881.20
2022-12-08T17:01:17.761Z,99885.80
2022-12-08T17:02:50.873Z,99893.00
2022-12-08T17:04:31.527Z,99891.80
2022-12-08T17:06:11.442Z,99891.80
2022-12-08T17:25:05.014Z,99898.60
2022-12-08T17:26:37.066Z,99895.20
2022-12-08T17:28:09.132Z,99892.60
2022-12-08T17:29:40.987Z,99892.60
2022-12-08T17:31:15.357Z,99890.00
2022-12-08T17:32:50.800Z,99890.80
2022-12-08T17:34:22.796Z,99889.00
2022-12-08T17:35:55.863Z,99888.80
2022-12-08T17:37:27.832Z,99892.80
2022-12-08T17:39:01.792Z,99895.00
2022-12-08T17:40:33.665Z,99896.00
2022-12-08T17:42:06.954Z,99894.20
2022-12-08T17:43:39.140Z,99894.80
2022-12-08T17:45:11.591Z,99890.40
2022-12-08T17:46:50.694Z,99892.20
2022-12-08T17:48:29.032Z,99889.00
2022-12-08T17:50:00.972Z,99887.80
2022-12-08T17:51:32.878Z,99881.60
2022-12-08T17:53:06.093Z,99881.80
2022-12-08T17:54:39.583Z,99885.20
2022-12-08T17:56:20.066Z,99883.60
2022-12-08T17:57:53.317Z,99885.00
2022-12-08T17:59:28.383Z,99890.40
2022-12-08T18:01:16.475Z,99884.80
2022-12-08T18:02:48.769Z,99886.00
2022-12-08T18:04:23.297Z,99892.40
2022-12-08T18:05:57.720Z,99890.20
2022-12-08T18:07:31.494Z,99886.60
2022-12-08T18:09:06.929Z,99890.20
2022-12-08T18:10:39.921Z,99889.80
2022-12-08T18:12:11.791Z,99887.80
2022-12-08T18:13:44.769Z,99882.00
2022-12-08T18:15:19.665Z,99890.00
2022-12-08T18:16:51.756Z,99888.20
2022-12-08T18:18:26.594Z,99886.20
2022-12-08T18:19:58.851Z,99888.20
2022-12-08T18:21:35.098Z,99887.80
2022-12-08T18:23:07.441Z,99891.80
2022-12-08T18:24:41.623Z,99888.00
2022-12-08T18:26:15.964Z,99888.20
2022-12-08T18:55:11.606Z,99891.00
2022-12-08T18:56:40.968Z,99892.40
2022-12-08T18:58:15.098Z,99892.20
2022-12-08T18:59:47.075Z,99887.00
2022-12-08T19:01:20.004Z,99888.40
2022-12-08T19:02:52.080Z,99887.80
2022-12-08T19:04:28.849Z,99891.00
2022-12-08T19:06:04.717Z,99890.80
2022-12-08T19:07:38.705Z,99891.40
2022-12-08T19:09:14.762Z,99891.80
2022-12-08T19:10:46.592Z,99892.80
2022-12-08T19:12:18.565Z,99898.00
2022-12-08T19:13:51.750Z,99893.20
2022-12-08T19:15:24.598Z,99891.80
2022-12-08T19:16:58.382Z,99893.20
2022-12-08T19:18:30.980Z,99894.00
2022-12-08T19:20:04.632Z,99894.00
2022-12-08T19:21:44.587Z,99893.80
2022-12-08T19:23:18.544Z,99892.60
2022-12-08T19:24:50.543Z,99891.20
2022-12-08T19:26:23.083Z,99890.40
2022-12-08T19:35:39.768Z,99881.60
2022-12-08T19:37:12.954Z,99882.60
2022-12-08T19:39:03.916Z,99879.00
2022-12-08T19:40:54.673Z,99883.00
2022-12-08T19:42:46.067Z,99887.00
2022-12-08T19:44:47.552Z,99884.80
2022-12-08T19:46:19.837Z,99887.80
2022-12-08T19:47:52.305Z,99886.80
2022-12-08T20:12:14.540Z,99898.40
2022-12-08T20:27:29.223Z,99910.60
2022-12-08T20:29:01.328Z,99913.80
2022-12-08T20:30:34.187Z,99912.80
2022-12-08T20:39:48.398Z,99912.80
2022-12-08T20:41:23.709Z,99911.80
2022-12-08T20:42:55.755Z,99917.00
2022-12-08T20:45:37.838Z,99922.80
2022-12-08T20:47:10.230Z,99920.60
2022-12-08T20:48:44.745Z,99921.20
2022-12-08T20:50:16.904Z,99924.80
2022-12-08T20:51:49.327Z,99922.60
2022-12-08T20:53:21.274Z,99922.20
2022-12-08T20:54:53.265Z,99926.40
2022-12-08T20:56:26.415Z,99927.00
2022-12-08T20:57:59.104Z,99927.40
2022-12-08T20:59:31.569Z,99928.00
2022-12-08T21:01:13.785Z,99931.60
2022-12-08T21:02:50.879Z,99928.80
2022-12-08T21:04:27.594Z,99929.40
2022-12-08T21:07:18.105Z,99928.60
2022-12-08T21:08:51.185Z,99930.00
2022-12-08T21:10:23.471Z,99925.80
2022-12-08T21:11:56.106Z,99930.20
2022-12-08T21:13:28.200Z,99932.20
2022-12-08T21:15:00.319Z,99925.00
2022-12-08T21:16:34.968Z,99926.20
2022-12-08T21:18:07.079Z,99929.20
2022-12-08T21:33:12.222Z,99925.00
2022-12-08T21:34:46.925Z,99926.60
2022-12-08T21:36:21.762Z,99922.20
2022-12-08T21:37:57.171Z,99923.80
2022-12-08T21:39:29.200Z,99922.20
2022-12-08T21:41:08.234Z,99920.80